createdAt,value
2023-11-03T00:01:57.352Z,0.75
2023-11-03T00:04:23.806Z,0.82
2023-11-03T00:06:50.196Z,0.60
2023-11-03T00:09:16.507Z,0.55
2023-11-03T00:11:42.878Z,0.43
2023-11-03T00:14:09.134Z,0.50
2023-11-03T00:16:35.448Z,0.82
2023-11-03T00:19:01.796Z,0.98
2023-11-03T00:21:28.180Z,1.30
2023-11-03T00:23:54.505Z,0.50
2023-11-03T00:26:20.813Z,0.47
2023-11-03T00:28:47.072Z,0.52
2023-11-03T00:31:13.405Z,0.43
2023-11-03T00:33:39.773Z,0.70
2023-11-03T00:36:06.103Z,1.45
2023-11-03T00:38:32.491Z,0.90
2023-11-03T00:40:58.807Z,0.80
2023-11-03T00:43:25.120Z,0.77
2023-11-03T00:45:51.370Z,0.50
2023-11-03T00:48:17.712Z,0.50
2023-11-03T00:50:44.034Z,0.60
2023-11-03T00:53:10.361Z,1.00
2023-11-03T00:55:36.614Z,1.02
2023-11-03T00:58:02.888Z,0.98
2023-11-03T01:00:29.156Z,0.77
2023-11-03T01:02:55.515Z,1.23
2023-11-03T01:05:21.859Z,2.65
2023-11-03T01:07:48.102Z,1.70
2023-11-03T01:10:14.426Z,1.17
2023-11-03T01:12:40.805Z,1.73
2023-11-03T01:15:07.194Z,2.67
2023-11-03T01:17:33.645Z,1.90
2023-11-03T01:20:00.045Z,1.88
2023-11-03T01:22:26.375Z,1.48
2023-11-03T01:24:52.709Z,1.30
2023-11-03T01:27:18.972Z,2.38
2023-11-03T01:29:45.241Z,1.90
2023-11-03T01:32:11.569Z,1.98
2023-11-03T01:34:37.887Z,1.67
2023-11-03T01:37:04.273Z,2.55
2023-11-03T01:39:30.596Z,2.03
2023-11-03T01:41:56.971Z,3.25
2023-11-03T01:44:23.246Z,2.40
2023-11-03T01:46:49.513Z,2.45
2023-11-03T01:49:15.872Z,2.67
2023-11-03T01:51:42.202Z,1.73
2023-11-03T01:54:08.452Z,2.55
2023-11-03T01:56:34.710Z,2.20
2023-11-03T01:59:00.949Z,1.95
2023-11-03T02:01:27.201Z,2.38
2023-11-03T02:03:53.498Z,2.30
2023-11-03T02:06:19.878Z,1.88
2023-11-03T02:08:46.186Z,1.45
2023-11-03T02:11:12.445Z,1.13
2023-11-03T02:13:38.730Z,1.02
2023-11-03T02:16:05.048Z,1.52
2023-11-03T02:18:31.378Z,2.03
2023-11-03T02:20:57.634Z,2.22
2023-11-03T02:23:23.919Z,2.55
2023-11-03T02:25:50.205Z,1.92
2023-11-03T02:28:16.483Z,2.28
2023-11-03T02:30:42.804Z,1.10
2023-11-03T02:33:09.084Z,1.10
2023-11-03T02:35:35.338Z,1.63
2023-11-03T02:38:01.657Z,1.27
2023-11-03T02:40:27.922Z,0.95
2023-11-03T02:42:54.279Z,1.63
2023-11-03T02:45:20.581Z,1.15
2023-11-03T02:47:46.841Z,1.67
2023-11-03T02:50:13.145Z,1.40
2023-11-03T02:52:39.433Z,1.70
2023-11-03T02:55:05.708Z,1.17
2023-11-03T02:57:32.045Z,1.52
2023-11-03T02:59:58.345Z,1.50
2023-11-03T03:02:24.687Z,2.05
2023-11-03T03:04:51.063Z,1.27
2023-11-03T03:07:17.398Z,1.48
2023-11-03T03:09:43.721Z,1.58
2023-11-03T03:12:10.035Z,1.63
2023-11-03T03:14:36.336Z,1.15
2023-11-03T03:17:02.609Z,1.17
2023-11-03T03:19:28.961Z,1.10
2023-11-03T03:21:55.308Z,1.67
2023-11-03T03:24:21.699Z,1.23
2023-11-03T03:26:48.007Z,1.33
2023-11-03T03:29:14.313Z,1.27
2023-11-03T03:31:40.577Z,1.60
2023-11-03T03:34:07.000Z,1.17
2023-11-03T03:36:33.343Z,1.27
2023-11-03T03:38:59.606Z,3.25
2023-11-03T03:41:25.984Z,1.60
2023-11-03T03:43:52.259Z,1.20
2023-11-03T03:46:18.557Z,1.45
2023-11-03T03:48:46.754Z,1.25
2023-11-03T03:51:14.084Z,0.70
2023-11-03T03:53:40.316Z,1.33
2023-11-03T03:56:06.620Z,2.45
2023-11-03T03:58:32.856Z,1.65
2023-11-03T04:00:59.109Z,1.05
2023-11-03T04:03:25.495Z,1.23
2023-11-03T04:05:51.847Z,1.10
2023-11-03T04:08:18.194Z,1.42
2023-11-03T04:10:44.559Z,1.65
2023-11-03T04:13:10.826Z,1.20
2023-11-03T04:15:37.158Z,1.58
2023-11-03T04:18:03.571Z,1.38
2023-11-03T04:20:29.906Z,2.08
2023-11-03T04:22:56.195Z,1.95
2023-11-03T04:25:22.540Z,1.02
2023-11-03T04:27:48.859Z,1.35
2023-11-03T04:30:15.153Z,1.45
2023-11-03T04:32:41.467Z,2.20
2023-11-03T04:35:07.797Z,2.50
2023-11-03T04:37:34.105Z,1.80
2023-11-03T04:40:00.427Z,1.70
2023-11-03T04:42:26.740Z,1.92
2023-11-03T04:44:53.020Z,1.55
2023-11-03T04:47:19.370Z,2.08
2023-11-03T04:49:45.644Z,1.98
2023-11-03T04:52:11.971Z,1.40
2023-11-03T04:54:38.289Z,2.30
2023-11-03T04:57:04.581Z,1.70
2023-11-03T04:59:30.879Z,2.70
2023-11-03T05:01:57.187Z,2.55
2023-11-03T05:04:23.544Z,1.73
2023-11-03T05:06:49.882Z,2.08
2023-11-03T05:09:16.162Z,1.23
2023-11-03T05:11:42.451Z,1.40
2023-11-03T05:14:08.769Z,2.20
2023-11-03T05:17:33.675Z,1.77
2023-11-03T05:19:59.982Z,2.10
2023-11-03T05:22:26.247Z,1.60
2023-11-03T05:24:52.550Z,1.98
2023-11-03T05:27:18.803Z,1.67
2023-11-03T05:29:45.071Z,1.88
2023-11-03T05:32:11.315Z,2.28
2023-11-03T05:34:37.639Z,2.47
2023-11-03T05:37:03.975Z,1.83
2023-11-03T05:39:30.297Z,2.53
2023-11-03T05:41:56.565Z,2.42
2023-11-03T05:44:22.808Z,1.63
2023-11-03T05:46:49.112Z,2.85
2023-11-03T05:49:15.475Z,1.67
2023-11-03T05:51:41.825Z,1.90
2023-11-03T05:54:08.070Z,2.78
2023-11-03T05:56:34.403Z,2.95
2023-11-03T05:59:03.002Z,2.10
2023-11-03T06:01:30.621Z,1.83
2023-11-03T06:03:56.913Z,1.88
2023-11-03T06:06:23.338Z,1.70
2023-11-03T06:08:49.671Z,2.92
2023-11-03T06:11:15.955Z,2.05
2023-11-03T06:13:42.214Z,1.75
2023-11-03T06:16:08.473Z,1.88
2023-11-03T06:18:34.752Z,2.22
2023-11-03T06:21:01.095Z,2.13
2023-11-03T06:23:27.395Z,2.15
2023-11-03T06:25:53.707Z,1.27
2023-11-03T06:28:20.004Z,1.60
2023-11-03T06:30:46.335Z,1.75
2023-11-03T06:33:12.655Z,1.88
2023-11-03T06:35:38.882Z,1.42
2023-11-03T06:38:05.181Z,2.25
2023-11-03T06:40:31.505Z,1.98
2023-11-03T06:42:57.832Z,2.03
2023-11-03T06:45:24.156Z,2.50
2023-11-03T06:47:50.476Z,2.33
2023-11-03T06:50:16.824Z,1.00
2023-11-03T06:52:43.128Z,1.13
2023-11-03T06:55:09.496Z,1.88
2023-11-03T06:57:35.805Z,1.70
2023-11-03T07:00:02.115Z,1.55
2023-11-03T07:02:28.401Z,2.33
2023-11-03T07:04:54.721Z,1.55
2023-11-03T07:07:21.054Z,1.67
2023-11-03T07:09:47.345Z,2.20
2023-11-03T07:12:13.756Z,1.30
2023-11-03T07:14:40.012Z,2.22
2023-11-03T07:17:06.276Z,1.90
2023-11-03T07:19:32.670Z,1.45
2023-11-03T07:21:59.021Z,1.95
2023-11-03T07:24:25.310Z,2.22
2023-11-03T07:26:51.587Z,2.03
2023-11-03T07:29:17.845Z,1.77
2023-11-03T07:31:47.079Z,2.08
2023-11-03T07:34:14.028Z,1.73
2023-11-03T07:36:40.328Z,2.60
2023-11-03T07:39:06.584Z,2.55
2023-11-03T07:41:32.845Z,2.17
2023-11-03T07:43:59.125Z,2.20
2023-11-03T07:46:25.436Z,2.17
2023-11-03T07:48:51.772Z,2.70
2023-11-03T07:51:18.117Z,1.55
2023-11-03T07:53:44.440Z,2.17
2023-11-03T07:56:10.700Z,2.30
2023-11-03T07:58:37.034Z,2.03
2023-11-03T08:01:03.321Z,2.63
2023-11-03T08:03:29.705Z,3.92
2023-11-03T08:05:56.142Z,2.33
2023-11-03T08:08:22.450Z,1.80
2023-11-03T08:10:48.770Z,2.92
2023-11-03T08:13:15.054Z,2.80
2023-11-03T08:15:41.362Z,2.88
2023-11-03T08:18:07.657Z,1.98
2023-11-03T08:20:33.972Z,1.60
2023-11-03T08:23:00.273Z,2.45
2023-11-03T08:25:26.589Z,3.15
2023-11-03T08:27:52.929Z,2.30
2023-11-03T08:30:19.347Z,1.75
2023-11-03T08:32:45.681Z,1.67
2023-11-03T08:35:12.001Z,1.65
2023-11-03T08:37:38.278Z,1.85
2023-11-03T08:40:06.842Z,2.47
2023-11-03T08:42:33.667Z,2.00
2023-11-03T08:44:59.972Z,1.95
2023-11-03T08:47:26.321Z,1.30
2023-11-03T08:49:52.657Z,1.77
2023-11-03T08:52:19.018Z,2.83
2023-11-03T08:54:45.351Z,1.98
2023-11-03T08:57:11.680Z,1.85
2023-11-03T08:59:37.945Z,2.05
2023-11-03T09:02:04.274Z,1.98
2023-11-03T09:04:30.632Z,2.05
2023-11-03T09:06:56.945Z,1.70
2023-11-03T09:09:23.263Z,1.13
2023-11-03T09:11:49.588Z,1.60
2023-11-03T09:14:15.913Z,2.25
2023-11-03T09:16:42.222Z,1.75
2023-11-03T09:19:08.850Z,1.27
2023-11-03T09:21:35.399Z,2.40
2023-11-03T09:24:01.673Z,2.10
2023-11-03T09:26:27.988Z,1.70
2023-11-03T09:28:56.144Z,1.30
2023-11-03T09:31:24.023Z,2.20
2023-11-03T09:33:50.420Z,1.15
2023-11-03T09:36:16.737Z,1.73
2023-11-03T09:38:43.177Z,1.70
2023-11-03T09:41:09.511Z,1.52
2023-11-03T09:43:35.756Z,1.52
2023-11-03T09:46:02.079Z,2.63
2023-11-03T09:48:28.445Z,1.38
2023-11-03T09:50:54.763Z,1.15
2023-11-03T09:53:21.127Z,1.40
2023-11-03T09:55:47.414Z,0.98
2023-11-03T09:58:13.756Z,1.27
2023-11-03T10:00:40.082Z,0.80
2023-11-03T10:03:06.566Z,1.10
2023-11-03T10:05:32.948Z,0.82
2023-11-03T10:07:59.487Z,2.03
2023-11-03T10:10:25.802Z,1.25
2023-11-03T10:12:52.116Z,1.10
2023-11-03T10:15:18.415Z,1.17
2023-11-03T10:17:44.798Z,0.88
2023-11-03T10:20:11.053Z,1.60
2023-11-03T10:22:37.327Z,1.00
2023-11-03T10:25:03.676Z,0.90
2023-11-03T10:27:30.087Z,0.75
2023-11-03T10:29:56.389Z,1.73
2023-11-03T10:32:22.730Z,1.10
2023-11-03T10:34:49.077Z,1.27
2023-11-03T10:37:15.468Z,1.20
2023-11-03T10:39:41.774Z,1.48
2023-11-03T10:42:08.054Z,1.40
2023-11-03T10:44:34.392Z,1.20
2023-11-03T10:47:00.660Z,1.38
2023-11-03T10:49:27.074Z,1.13
2023-11-03T10:51:53.610Z,0.95
2023-11-03T10:54:19.955Z,1.58
2023-11-03T10:57:08.803Z,1.30
2023-11-03T10:59:34.849Z,0.80
2023-11-03T11:02:01.548Z,1.20
2023-11-03T11:04:27.901Z,1.27
2023-11-03T11:09:20.496Z,1.20
2023-11-03T11:11:46.787Z,1.20
2023-11-03T11:14:13.036Z,1.35
2023-11-03T11:16:39.332Z,1.35
2023-11-03T11:19:05.710Z,0.75
2023-11-03T11:21:32.032Z,1.17
2023-11-03T11:23:58.398Z,1.10
2023-11-03T11:26:34.502Z,0.60
2023-11-03T11:29:02.430Z,0.52
2023-11-03T11:31:28.914Z,0.90
2023-11-03T11:33:55.344Z,0.90
2023-11-03T11:36:21.739Z,1.00
2023-11-03T11:38:48.113Z,1.00
2023-11-03T11:41:14.393Z,0.50
2023-11-03T11:43:46.561Z,0.70
2023-11-03T11:46:13.560Z,0.63
2023-11-03T11:48:40.092Z,0.55
2023-11-03T11:51:06.465Z,1.20
2023-11-03T11:53:32.800Z,0.77
2023-11-03T11:55:59.096Z,1.17
2023-11-03T11:58:25.474Z,1.10
2023-11-03T12:00:51.843Z,0.68
2023-11-03T12:03:18.241Z,0.70
2023-11-03T12:05:44.745Z,0.70
2023-11-03T12:08:11.044Z,0.80
2023-11-03T12:10:37.441Z,0.85
2023-11-03T12:13:03.777Z,0.80
2023-11-03T12:15:30.067Z,1.15
2023-11-03T12:17:56.474Z,0.80
2023-11-03T12:20:22.791Z,1.25
2023-11-03T12:22:49.132Z,0.68
2023-11-03T12:25:15.479Z,0.90
2023-11-03T12:27:41.777Z,0.80
2023-11-03T12:30:08.071Z,1.83
2023-11-03T12:32:34.563Z,1.00
2023-11-03T12:35:00.945Z,1.13
2023-11-03T12:37:27.372Z,0.77
2023-11-03T12:39:53.688Z,1.15
2023-11-03T12:42:20.021Z,1.00
2023-11-03T12:44:46.529Z,1.02
2023-11-03T12:47:12.900Z,1.08
2023-11-03T12:49:39.244Z,1.00
2023-11-03T12:52:05.566Z,1.35
2023-11-03T12:54:31.903Z,0.90
2023-11-03T12:56:58.217Z,1.20
2023-11-03T12:59:24.487Z,1.05
2023-11-03T13:01:50.797Z,1.15
2023-11-03T13:04:17.192Z,0.77
2023-11-03T13:06:43.534Z,1.00
2023-11-03T13:09:09.835Z,1.38
2023-11-03T13:11:36.120Z,0.80
2023-11-03T13:14:02.471Z,0.77
2023-11-03T13:16:28.793Z,1.00
2023-11-03T13:18:55.218Z,1.15
2023-11-03T13:21:21.490Z,0.90
2023-11-03T13:23:47.746Z,1.10
2023-11-03T13:26:14.053Z,1.05
2023-11-03T13:28:40.371Z,0.68
2023-11-03T13:31:06.740Z,1.40
2023-11-03T13:33:33.115Z,0.82
2023-11-03T13:35:59.490Z,1.27
2023-11-03T13:38:25.874Z,1.08
2023-11-03T13:40:52.253Z,1.45
2023-11-03T13:43:18.629Z,0.60
2023-11-03T13:45:44.935Z,1.17
2023-11-03T13:48:11.313Z,0.63
2023-11-03T13:50:37.646Z,0.80
2023-11-03T13:53:03.938Z,1.20
2023-11-03T13:55:30.371Z,1.02
2023-11-03T13:57:57.642Z,1.45
2023-11-03T14:00:25.985Z,0.80
2023-11-03T14:02:52.296Z,0.63
2023-11-03T14:05:18.674Z,0.77
2023-11-03T14:07:45.008Z,0.98
2023-11-03T14:10:11.361Z,1.25
2023-11-03T14:12:37.688Z,1.00
2023-11-03T14:15:04.157Z,1.20
2023-11-03T14:17:30.494Z,1.00
2023-11-03T14:19:56.801Z,0.80
2023-11-03T14:22:23.152Z,1.02
2023-11-03T14:24:49.415Z,0.90
2023-11-03T14:27:15.695Z,0.70
2023-11-03T14:29:42.024Z,0.90
2023-11-03T14:32:08.279Z,1.25
2023-11-03T14:34:34.698Z,0.90
2023-11-03T14:37:01.094Z,1.50
2023-11-03T14:39:27.402Z,0.82
2023-11-03T14:41:53.750Z,1.63
2023-11-03T14:44:20.061Z,1.30
2023-11-03T14:46:46.317Z,1.35
2023-11-03T14:49:12.653Z,1.25
2023-11-03T14:51:38.994Z,1.25
2023-11-03T14:54:05.279Z,0.95
2023-11-03T14:56:31.620Z,1.30
2023-11-03T14:58:57.988Z,1.08
2023-11-03T15:01:24.388Z,1.48
2023-11-03T15:03:50.779Z,2.03
2023-11-03T15:06:17.072Z,6.43
2023-11-03T15:08:43.349Z,3.20
2023-11-03T15:11:09.664Z,3.38
2023-11-03T15:13:36.009Z,3.25
2023-11-03T15:16:02.398Z,1.85
2023-11-03T15:18:28.815Z,1.50
2023-11-03T15:20:55.196Z,1.08
2023-11-03T15:23:21.516Z,1.42
2023-11-03T15:25:47.849Z,0.60
2023-11-03T15:28:14.352Z,0.90
2023-11-03T15:30:40.735Z,1.13
2023-11-03T15:33:07.133Z,1.20
2023-11-03T15:35:33.527Z,1.20
2023-11-03T15:37:59.877Z,0.90
2023-11-03T15:40:27.439Z,1.10
2023-11-03T15:42:53.703Z,1.00
2023-11-03T15:45:19.957Z,1.05
2023-11-03T15:47:46.309Z,1.67
2023-11-03T15:50:12.647Z,5.88
2023-11-03T15:52:38.990Z,1.60
2023-11-03T15:55:05.321Z,1.50
2023-11-03T15:57:31.604Z,1.05
2023-11-03T15:59:57.897Z,0.80
2023-11-03T16:02:24.209Z,1.20
2023-11-03T16:04:50.479Z,1.35
2023-11-03T16:07:16.805Z,1.33
2023-11-03T16:09:43.071Z,0.85
2023-11-03T16:12:09.433Z,1.48
2023-11-03T16:14:35.725Z,3.92
2023-11-03T16:17:01.988Z,5.90
2023-11-03T16:19:28.347Z,2.03
2023-11-03T16:21:54.639Z,0.70
2023-11-03T16:24:20.944Z,1.42
2023-11-03T16:26:47.343Z,0.82
2023-11-03T16:29:13.694Z,2.70
2023-11-03T16:31:40.349Z,4.25
2023-11-03T16:34:06.738Z,2.10
2023-11-03T16:36:33.101Z,1.20
2023-11-03T16:38:59.345Z,3.65
2023-11-03T16:41:25.612Z,2.45
2023-11-03T16:43:51.873Z,3.08
2023-11-03T16:46:18.177Z,2.90
2023-11-03T16:48:44.614Z,1.77
2023-11-03T16:51:11.016Z,2.97
2023-11-03T16:53:37.261Z,2.00
2023-11-03T16:56:03.521Z,2.10
2023-11-03T16:58:29.809Z,1.42
2023-11-03T17:00:56.076Z,2.20
2023-11-03T17:03:22.489Z,1.33
2023-11-03T17:05:48.964Z,1.17
2023-11-03T17:08:15.302Z,1.70
2023-11-03T17:10:41.718Z,0.90
2023-11-03T17:13:08.121Z,0.65
2023-11-03T17:15:34.437Z,1.10
2023-11-03T17:18:00.857Z,0.70
2023-11-03T17:20:27.254Z,0.60
2023-11-03T17:22:53.544Z,0.80
2023-11-03T17:25:19.880Z,0.70
2023-11-03T17:27:46.181Z,0.60
2023-11-03T17:30:12.493Z,0.70
2023-11-03T17:32:38.841Z,1.23
2023-11-03T17:35:05.102Z,0.70
2023-11-03T17:37:31.365Z,0.80
2023-11-03T17:39:57.689Z,1.10
2023-11-03T17:42:23.941Z,1.30
2023-11-03T17:44:50.191Z,1.05
2023-11-03T17:47:17.963Z,1.30
2023-11-03T17:49:45.480Z,1.02
2023-11-03T17:52:11.760Z,0.90
2023-11-03T17:54:38.036Z,1.15
2023-11-03T17:57:04.341Z,1.02
2023-11-03T17:59:30.607Z,1.27
2023-11-03T18:01:56.950Z,1.08
2023-11-03T18:04:23.325Z,0.93
2023-11-03T18:06:49.617Z,0.95
2023-11-03T18:09:15.890Z,1.10
2023-11-03T18:11:42.191Z,1.33
2023-11-03T18:14:08.651Z,2.33
2023-11-03T18:16:34.986Z,1.60
2023-11-03T18:19:01.309Z,1.05
2023-11-03T18:21:27.704Z,1.17
2023-11-03T18:23:53.961Z,0.70
2023-11-03T18:26:20.273Z,0.90
2023-11-03T18:28:46.530Z,0.70
2023-11-03T18:31:12.807Z,0.82
2023-11-03T18:33:39.185Z,1.95
2023-11-03T18:36:07.471Z,1.17
2023-11-03T18:38:35.527Z,1.40
2023-11-03T18:41:01.778Z,0.95
2023-11-03T18:43:28.097Z,1.70
2023-11-03T18:45:54.398Z,1.00
2023-11-03T18:48:20.722Z,1.35
2023-11-03T18:59:21.035Z,1.55
2023-11-03T19:08:28.259Z,1.65
2023-11-03T19:10:54.654Z,0.98
2023-11-03T19:13:20.921Z,1.02
2023-11-03T19:15:47.251Z,0.93
2023-11-03T19:18:13.634Z,1.00
2023-11-03T19:20:40.098Z,0.90
2023-11-03T19:23:06.382Z,0.85
2023-11-03T19:25:32.649Z,1.38
2023-11-03T19:27:58.932Z,1.27
2023-11-03T19:30:25.257Z,3.00
2023-11-03T19:32:51.648Z,7.03
2023-11-03T19:35:17.905Z,10.13
2023-11-03T19:37:44.175Z,9.10
2023-11-03T19:40:10.450Z,10.35
2023-11-03T19:42:36.757Z,7.57
2023-11-03T19:45:03.102Z,5.82
2023-11-03T19:47:29.426Z,6.53
2023-11-03T19:49:55.760Z,7.18
2023-11-03T19:52:22.145Z,6.30
2023-11-03T19:54:48.455Z,10.40
2023-11-03T19:57:14.760Z,5.25
2023-11-03T19:59:41.079Z,6.82
2023-11-03T20:02:07.333Z,6.50
2023-11-03T20:04:33.673Z,4.30
2023-11-03T20:06:59.958Z,3.05
2023-11-03T20:09:26.224Z,3.30
2023-11-03T20:11:52.461Z,2.22
2023-11-03T20:14:18.738Z,2.40
2023-11-03T20:16:45.128Z,2.60
2023-11-03T20:19:11.509Z,2.47
2023-11-03T20:21:37.859Z,4.53
2023-11-03T20:24:04.196Z,3.17
2023-11-03T20:26:30.482Z,3.13
2023-11-03T20:28:56.742Z,2.85
2023-11-03T20:31:23.021Z,1.60
2023-11-03T20:33:49.473Z,1.65
2023-11-03T20:36:15.838Z,1.95
2023-11-03T20:38:42.106Z,1.30
2023-11-03T20:41:08.415Z,1.65
2023-11-03T20:43:34.846Z,1.65
2023-11-03T20:46:01.133Z,2.20
2023-11-03T20:48:27.477Z,2.47
2023-11-03T20:50:53.872Z,1.63
2023-11-03T20:53:20.128Z,1.80
2023-11-03T20:55:46.472Z,2.45
2023-11-03T20:58:12.778Z,3.58
2023-11-03T21:00:39.300Z,2.30
2023-11-03T21:03:05.719Z,2.22
2023-11-03T21:05:32.060Z,2.22
2023-11-03T21:07:58.377Z,3.67
2023-11-03T21:10:24.646Z,2.95
2023-11-03T21:12:50.987Z,1.80
2023-11-03T21:15:17.430Z,2.08
2023-11-03T21:17:43.885Z,1.60
2023-11-03T21:20:10.253Z,1.40
2023-11-03T21:22:36.524Z,1.45
2023-11-03T21:25:02.822Z,1.30
2023-11-03T21:27:29.125Z,2.40
2023-11-03T21:29:55.373Z,1.50
2023-11-03T21:32:23.160Z,1.55
2023-11-03T21:34:49.590Z,1.70
2023-11-03T21:37:15.842Z,1.55
2023-11-03T21:39:42.139Z,1.63
2023-11-03T21:42:08.436Z,1.50
2023-11-03T21:44:34.698Z,1.70
2023-11-03T21:47:00.968Z,2.05
2023-11-03T21:49:27.336Z,1.42
2023-11-03T21:51:53.620Z,1.50
2023-11-03T21:54:20.244Z,1.27
2023-11-03T21:56:46.664Z,2.47
2023-11-03T21:59:12.946Z,1.88
2023-11-03T22:01:39.196Z,1.58
2023-11-03T22:04:05.547Z,1.60
2023-11-03T22:06:31.922Z,2.38
2023-11-03T22:09:04.476Z,2.92
2023-11-03T22:11:35.836Z,5.65
2023-11-03T22:14:02.122Z,4.20
2023-11-03T22:16:28.367Z,4.75
2023-11-03T22:18:54.840Z,3.55
2023-11-03T22:21:21.312Z,5.22
2023-11-03T22:23:47.641Z,3.72
2023-11-03T22:26:16.816Z,2.45
2023-11-03T22:28:43.799Z,7.70
2023-11-03T22:31:10.074Z,7.40
2023-11-03T22:33:36.384Z,3.35
2023-11-03T22:36:02.730Z,2.35
2023-11-03T22:38:28.983Z,2.35
2023-11-03T22:40:55.244Z,1.98
2023-11-03T22:43:21.497Z,1.95
2023-11-03T22:45:47.879Z,1.30
2023-11-03T22:48:14.341Z,1.63
2023-11-03T22:50:40.744Z,1.17
2023-11-03T22:53:07.014Z,1.20
2023-11-03T22:55:33.277Z,1.65
2023-11-03T22:57:59.571Z,1.33
2023-11-03T23:00:26.064Z,1.33
2023-11-03T23:02:52.546Z,1.50
2023-11-03T23:05:18.970Z,2.67
2023-11-03T23:07:45.348Z,0.90
2023-11-03T23:10:11.666Z,1.30
2023-11-03T23:12:37.999Z,1.15
2023-11-03T23:15:04.257Z,1.08
2023-11-03T23:17:30.596Z,0.80
2023-11-03T23:19:56.953Z,1.25
2023-11-03T23:22:23.196Z,1.08
2023-11-03T23:24:49.522Z,1.35
2023-11-03T23:27:15.824Z,1.00
2023-11-03T23:29:42.115Z,0.77
2023-11-03T23:32:08.439Z,0.88
2023-11-03T23:34:34.764Z,0.95
2023-11-03T23:37:01.078Z,0.73
2023-11-03T23:39:27.408Z,0.95
2023-11-03T23:41:53.696Z,0.75
2023-11-03T23:44:19.997Z,0.80
2023-11-03T23:46:46.298Z,1.52
2023-11-03T23:49:12.751Z,1.33
2023-11-03T23:51:39.078Z,1.33
2023-11-03T23:54:05.329Z,0.73
2023-11-03T23:56:31.651Z,1.02
2023-11-03T23:58:57.930Z,1.30
